createdAt,value
2022-11-10T00:01:09.431Z,11.70
2022-11-10T00:03:37.809Z,11.70
2022-11-10T00:06:06.316Z,11.70
2022-11-10T00:08:33.464Z,11.70
2022-11-10T00:11:06.394Z,11.70
2022-11-10T00:13:35.542Z,11.70
2022-11-10T00:16:23.337Z,11.70
2022-11-10T00:18:50.867Z,11.70
2022-11-10T00:21:18.525Z,11.70
2022-11-10T00:23:47.683Z,11.70
2022-11-10T00:26:19.705Z,11.70
2022-11-10T00:28:46.482Z,11.70
2022-11-10T00:31:13.975Z,11.70
2022-11-10T00:33:44.766Z,11.70
2022-11-10T00:36:11.663Z,11.70
2022-11-10T00:38:38.591Z,11.70
2022-11-10T00:41:05.760Z,11.70
2022-11-10T00:43:33.109Z,11.70
2022-11-10T00:46:00.190Z,11.70
2022-11-10T00:48:26.969Z,11.70
2022-11-10T00:50:53.768Z,11.70
2022-11-10T00:53:21.082Z,11.70
2022-11-10T00:55:49.104Z,11.70
2022-11-10T00:58:16.200Z,11.70
2022-11-10T01:00:43.078Z,11.70
2022-11-10T01:03:15.068Z,11.70
2022-11-10T01:05:42.703Z,11.70
2022-11-10T01:08:10.482Z,11.70
2022-11-10T01:10:37.428Z,11.70
2022-11-10T01:13:04.301Z,11.70
2022-11-10T01:15:31.102Z,11.70
2022-11-10T01:17:57.940Z,11.80
2022-11-10T01:20:25.397Z,11.80
2022-11-10T01:22:52.220Z,11.80
2022-11-10T01:25:19.136Z,11.80
2022-11-10T01:27:45.965Z,11.80
2022-11-10T01:30:13.283Z,11.80
2022-11-10T01:32:40.254Z,11.80
2022-11-10T01:35:08.614Z,11.80
2022-11-10T01:37:36.230Z,11.80
2022-11-10T01:40:04.988Z,11.90
2022-11-10T01:43:01.259Z,11.90
2022-11-10T01:45:45.693Z,11.90
2022-11-10T01:48:41.528Z,11.90
2022-11-10T01:51:22.975Z,11.90
2022-11-10T01:53:54.584Z,11.90
2022-11-10T01:56:22.130Z,11.90
2022-11-10T01:58:56.336Z,11.90
2022-11-10T02:01:24.308Z,11.90
2022-11-10T02:03:55.943Z,11.90
2022-11-10T02:06:28.652Z,11.90
2022-11-10T02:08:57.694Z,11.90
2022-11-10T02:11:25.439Z,11.90
2022-11-10T02:13:53.277Z,11.90
2022-11-10T02:16:21.359Z,11.90
2022-11-10T02:18:49.043Z,11.90
2022-11-10T02:21:20.843Z,11.90
2022-11-10T02:23:50.432Z,11.90
2022-11-10T02:26:38.232Z,11.90
2022-11-10T02:29:05.075Z,11.90
2022-11-10T02:31:31.834Z,11.90
2022-11-10T02:33:58.639Z,11.90
2022-11-10T02:36:25.420Z,11.90
2022-11-10T02:38:52.179Z,11.90
2022-11-10T02:41:18.955Z,11.90
2022-11-10T02:43:46.053Z,11.90
2022-11-10T02:46:12.935Z,11.90
2022-11-10T02:48:39.815Z,11.90
2022-11-10T02:51:06.681Z,11.90
2022-11-10T02:53:33.469Z,11.90
2022-11-10T02:56:00.386Z,11.90
2022-11-10T02:58:27.150Z,11.90
2022-11-10T03:00:54.000Z,11.90
2022-11-10T03:03:21.157Z,11.90
2022-11-10T03:05:48.159Z,11.90
2022-11-10T03:08:14.953Z,11.90
2022-11-10T03:10:41.836Z,11.90
2022-11-10T03:13:08.661Z,11.90
2022-11-10T03:15:35.517Z,11.90
2022-11-10T03:18:05.789Z,11.90
2022-11-10T03:20:33.014Z,11.90
2022-11-10T03:23:04.569Z,11.90
2022-11-10T03:25:32.114Z,11.90
2022-11-10T03:27:59.160Z,11.90
2022-11-10T03:30:26.961Z,12.00
2022-11-10T03:32:53.764Z,12.00
2022-11-10T03:35:20.520Z,12.00
2022-11-10T03:37:47.336Z,12.00
2022-11-10T03:40:14.213Z,12.00
2022-11-10T03:42:45.037Z,12.00
2022-11-10T03:45:13.694Z,12.00
2022-11-10T03:47:40.960Z,12.00
2022-11-10T03:50:08.322Z,11.90
2022-11-10T03:52:35.150Z,11.90
2022-11-10T03:55:03.596Z,11.90
2022-11-10T03:57:30.607Z,11.90
2022-11-10T03:59:57.444Z,11.90
2022-11-10T04:02:24.232Z,11.90
2022-11-10T04:05:09.391Z,11.90
2022-11-10T04:07:54.827Z,11.90
2022-11-10T04:10:21.628Z,11.90
2022-11-10T04:13:07.499Z,11.90
2022-11-10T04:15:43.415Z,11.90
2022-11-10T04:18:21.298Z,11.90
2022-11-10T04:20:49.070Z,12.00
2022-11-10T04:23:28.103Z,11.90
2022-11-10T04:26:18.131Z,11.90
2022-11-10T04:28:47.460Z,11.90
2022-11-10T04:31:15.843Z,11.90
2022-11-10T04:33:43.317Z,11.90
2022-11-10T04:36:12.464Z,11.90
2022-11-10T04:38:40.116Z,11.80
2022-11-10T04:41:07.940Z,11.90
2022-11-10T04:43:35.002Z,11.90
2022-11-10T04:46:02.331Z,11.90
2022-11-10T04:48:30.223Z,12.00
2022-11-10T04:50:57.251Z,12.00
2022-11-10T04:53:25.478Z,12.00
2022-11-10T04:55:53.588Z,12.00
2022-11-10T04:58:20.509Z,12.00
2022-11-10T05:00:47.316Z,12.00
2022-11-10T05:03:14.239Z,12.00
2022-11-10T05:05:41.397Z,12.00
2022-11-10T05:08:09.011Z,12.10
2022-11-10T05:10:37.828Z,12.10
2022-11-10T05:13:05.086Z,12.10
2022-11-10T05:15:33.187Z,12.10
2022-11-10T05:18:00.566Z,12.10
2022-11-10T05:20:27.633Z,12.10
2022-11-10T05:23:13.225Z,12.10
2022-11-10T05:25:42.035Z,12.10
2022-11-10T05:28:10.512Z,12.20
2022-11-10T05:30:37.888Z,12.20
2022-11-10T05:33:05.443Z,12.20
2022-11-10T05:35:33.406Z,12.20
2022-11-10T05:38:00.473Z,12.20
2022-11-10T05:40:27.799Z,12.30
2022-11-10T05:42:54.725Z,12.20
2022-11-10T05:45:23.583Z,12.30
2022-11-10T05:47:51.239Z,12.30
2022-11-10T05:50:19.507Z,12.30
2022-11-10T05:52:50.388Z,12.30
2022-11-10T05:55:19.600Z,12.30
2022-11-10T05:57:47.852Z,12.30
2022-11-10T06:00:17.202Z,12.30
2022-11-10T06:02:44.400Z,12.30
2022-11-10T06:05:12.234Z,12.40
2022-11-10T06:07:39.211Z,12.40
2022-11-10T06:10:06.521Z,12.40
2022-11-10T06:12:33.412Z,12.40
2022-11-10T06:15:00.489Z,12.40
2022-11-10T06:17:27.290Z,12.40
2022-11-10T06:19:54.162Z,12.40
2022-11-10T06:22:20.978Z,12.40
2022-11-10T06:24:47.870Z,12.40
2022-11-10T06:27:14.661Z,12.40
2022-11-10T06:29:41.442Z,12.50
2022-11-10T06:32:08.208Z,12.50
2022-11-10T06:34:35.044Z,12.50
2022-11-10T06:37:01.942Z,12.50
2022-11-10T06:39:28.786Z,12.50
2022-11-10T06:41:55.551Z,12.50
2022-11-10T06:44:22.356Z,12.60
2022-11-10T06:46:49.161Z,12.60
2022-11-10T06:49:15.968Z,12.60
2022-11-10T06:51:42.760Z,12.60
2022-11-10T06:54:09.748Z,12.60
2022-11-10T06:56:36.710Z,12.60
2022-11-10T06:59:03.832Z,12.60
2022-11-10T07:01:30.720Z,12.60
2022-11-10T07:04:18.594Z,12.60
2022-11-10T07:06:47.635Z,12.60
2022-11-10T07:09:15.800Z,12.70
2022-11-10T07:11:42.897Z,12.60
2022-11-10T07:14:10.230Z,12.70
2022-11-10T07:16:37.145Z,12.70
2022-11-10T07:19:04.039Z,12.70
2022-11-10T07:21:30.891Z,12.70
2022-11-10T07:23:57.658Z,12.70
2022-11-10T07:26:24.440Z,12.70
2022-11-10T07:28:51.368Z,12.70
2022-11-10T07:31:18.119Z,12.70
2022-11-10T07:33:47.521Z,12.70
2022-11-10T07:36:17.439Z,12.70
2022-11-10T07:38:44.220Z,12.80
2022-11-10T07:41:11.032Z,12.80
2022-11-10T07:43:37.908Z,12.80
2022-11-10T07:46:04.832Z,12.80
2022-11-10T07:48:31.613Z,12.80
2022-11-10T07:50:58.413Z,12.80
2022-11-10T07:53:25.438Z,12.80
2022-11-10T07:55:52.511Z,12.80
2022-11-10T07:58:19.408Z,12.80
2022-11-10T08:00:47.073Z,12.90
2022-11-10T08:03:16.608Z,12.90
2022-11-10T08:05:43.551Z,12.90
2022-11-10T08:08:10.854Z,12.90
2022-11-10T08:10:38.854Z,12.90
2022-11-10T08:13:08.175Z,12.90
2022-11-10T08:15:35.658Z,12.90
2022-11-10T08:18:05.514Z,12.90
2022-11-10T08:20:32.842Z,12.90
2022-11-10T08:23:02.402Z,12.90
2022-11-10T08:25:34.802Z,12.90
2022-11-10T08:28:14.596Z,12.90
2022-11-10T08:30:43.189Z,13.00
2022-11-10T08:33:12.561Z,13.00
2022-11-10T08:35:41.896Z,13.00
2022-11-10T08:38:15.401Z,13.00
2022-11-10T08:40:42.731Z,13.00
2022-11-10T08:43:11.742Z,13.00
2022-11-10T08:45:40.359Z,13.00
2022-11-10T08:48:12.873Z,13.10
2022-11-10T08:50:40.091Z,13.10
2022-11-10T08:53:19.158Z,13.10
2022-11-10T08:55:46.355Z,13.10
2022-11-10T08:58:15.769Z,13.10
2022-11-10T09:00:42.925Z,13.10
2022-11-10T09:03:23.271Z,13.10
2022-11-10T09:05:55.218Z,13.20
2022-11-10T09:08:25.174Z,13.20
2022-11-10T09:10:52.001Z,13.20
2022-11-10T09:13:27.719Z,13.20
2022-11-10T09:15:56.546Z,13.20
2022-11-10T09:18:23.341Z,13.20
2022-11-10T09:20:50.344Z,13.20
2022-11-10T09:23:19.428Z,13.20
2022-11-10T09:25:53.792Z,13.30
2022-11-10T09:28:21.902Z,13.30
2022-11-10T09:30:52.977Z,13.30
2022-11-10T09:33:20.333Z,13.30
2022-11-10T09:35:47.844Z,13.30
2022-11-10T09:38:14.754Z,13.30
2022-11-10T09:40:44.623Z,13.40
2022-11-10T09:43:19.893Z,13.40
2022-11-10T09:45:51.294Z,13.40
2022-11-10T09:48:25.759Z,13.50
2022-11-10T09:51:11.049Z,13.50
2022-11-10T09:53:50.847Z,13.50
2022-11-10T09:56:34.514Z,13.50
2022-11-10T09:59:04.283Z,13.40
2022-11-10T10:01:38.202Z,13.40
2022-11-10T10:04:20.434Z,13.50
2022-11-10T10:07:18.088Z,13.40
2022-11-10T10:10:14.478Z,13.50
2022-11-10T10:12:43.989Z,13.50
2022-11-10T10:15:16.276Z,13.50
2022-11-10T10:17:48.906Z,13.60
2022-11-10T10:20:27.427Z,13.60
2022-11-10T10:23:12.715Z,13.60
2022-11-10T10:25:41.656Z,13.60
2022-11-10T10:28:14.749Z,13.70
2022-11-10T10:30:43.049Z,13.60
2022-11-10T10:33:18.721Z,13.70
2022-11-10T10:35:47.430Z,13.70
2022-11-10T10:38:39.206Z,13.60
2022-11-10T10:41:23.449Z,13.70
2022-11-10T10:43:56.352Z,13.70
2022-11-10T10:46:32.874Z,13.80
2022-11-10T10:49:28.529Z,13.80
2022-11-10T10:52:16.555Z,13.90
2022-11-10T10:54:43.721Z,13.90
2022-11-10T10:57:30.451Z,13.90
2022-11-10T11:00:19.801Z,13.90
2022-11-10T11:03:04.676Z,13.90
2022-11-10T11:05:32.009Z,13.90
2022-11-10T11:08:01.076Z,13.90
2022-11-10T11:10:35.514Z,13.90
2022-11-10T11:13:31.505Z,13.80
2022-11-10T11:16:00.066Z,13.90
2022-11-10T11:18:29.754Z,13.90
2022-11-10T11:21:11.669Z,14.00
2022-11-10T11:24:01.351Z,14.00
2022-11-10T11:26:55.783Z,14.00
2022-11-10T11:29:28.580Z,14.10
2022-11-10T11:32:21.760Z,14.10
2022-11-10T11:35:13.534Z,14.10
2022-11-10T11:37:59.199Z,14.10
2022-11-10T11:41:01.814Z,14.10
2022-11-10T11:43:50.219Z,14.20
2022-11-10T11:46:30.973Z,14.20
2022-11-10T11:49:02.879Z,14.20
2022-11-10T11:51:32.831Z,14.10
2022-11-10T11:54:24.103Z,14.20
2022-11-10T11:56:52.542Z,14.10
2022-11-10T11:59:49.727Z,14.20
2022-11-10T12:02:43.235Z,14.20
2022-11-10T12:05:13.530Z,14.20
2022-11-10T12:08:10.940Z,14.30
2022-11-10T12:11:10.611Z,14.30
2022-11-10T12:13:44.737Z,14.30
2022-11-10T12:16:11.482Z,14.30
2022-11-10T12:18:51.978Z,14.30
2022-11-10T12:21:45.033Z,14.30
2022-11-10T12:24:21.640Z,14.40
2022-11-10T12:26:54.401Z,14.30
2022-11-10T12:29:24.039Z,14.30
2022-11-10T12:31:54.915Z,14.40
2022-11-10T12:34:40.702Z,14.40
2022-11-10T12:37:16.843Z,14.40
2022-11-10T12:40:16.364Z,14.40
2022-11-10T12:42:47.215Z,14.40
2022-11-10T12:45:16.556Z,14.40
2022-11-10T12:47:45.185Z,14.50
2022-11-10T12:50:30.370Z,14.50
2022-11-10T12:53:03.505Z,14.40
2022-11-10T12:55:42.293Z,14.30
2022-11-10T12:58:13.057Z,14.30
2022-11-10T13:00:54.821Z,14.40
2022-11-10T13:03:33.576Z,14.30
2022-11-10T13:06:03.159Z,14.30
2022-11-10T13:08:41.815Z,14.40
2022-11-10T13:11:13.874Z,14.40
2022-11-10T13:13:59.452Z,14.40
2022-11-10T13:16:41.744Z,14.50
2022-11-10T13:19:10.091Z,14.50
2022-11-10T13:22:05.434Z,14.50
2022-11-10T13:24:34.928Z,14.50
2022-11-10T13:27:02.933Z,14.50
2022-11-10T13:29:48.231Z,14.50
2022-11-10T13:32:14.965Z,14.50
2022-11-10T13:34:42.602Z,14.60
2022-11-10T13:37:34.473Z,14.60
2022-11-10T13:40:23.311Z,14.60
2022-11-10T13:42:58.929Z,14.60
2022-11-10T13:45:37.601Z,14.50
2022-11-10T13:48:13.235Z,14.50
2022-11-10T13:50:46.018Z,14.50
2022-11-10T13:53:26.199Z,14.50
2022-11-10T13:56:31.566Z,14.50
2022-11-10T13:58:58.661Z,14.50
2022-11-10T14:01:30.438Z,14.50
2022-11-10T14:04:02.766Z,14.50
2022-11-10T14:06:43.403Z,14.50
2022-11-10T14:09:34.998Z,14.50
2022-11-10T14:12:34.082Z,14.50
2022-11-10T14:15:12.687Z,14.50
2022-11-10T14:17:49.558Z,14.40
2022-11-10T14:20:32.673Z,14.40
2022-11-10T14:23:00.947Z,14.40
2022-11-10T14:25:42.781Z,14.40
2022-11-10T14:28:29.110Z,14.40
2022-11-10T14:30:57.326Z,14.40
2022-11-10T14:33:25.763Z,14.40
2022-11-10T14:35:55.255Z,14.30
2022-11-10T14:38:23.683Z,14.30
2022-11-10T14:41:02.530Z,14.30
2022-11-10T14:43:36.871Z,14.30
2022-11-10T14:46:06.613Z,14.30
2022-11-10T14:48:39.357Z,14.30
2022-11-10T14:51:15.855Z,14.30
2022-11-10T14:53:54.456Z,14.30
2022-11-10T14:56:28.472Z,14.30
2022-11-10T14:58:59.246Z,14.20
2022-11-10T15:01:34.775Z,14.20
2022-11-10T15:04:07.217Z,14.20
2022-11-10T15:06:34.940Z,14.20
2022-11-10T15:09:13.829Z,14.20
2022-11-10T15:11:53.130Z,14.20
2022-11-10T15:14:42.495Z,14.20
2022-11-10T15:17:12.452Z,14.10
2022-11-10T15:19:50.383Z,14.10
2022-11-10T15:22:35.539Z,14.10
2022-11-10T15:25:13.880Z,14.10
2022-11-10T15:27:40.759Z,14.10
2022-11-10T15:30:23.299Z,14.10
2022-11-10T15:32:51.410Z,14.00
2022-11-10T15:35:28.810Z,14.00
2022-11-10T15:38:21.131Z,14.00
2022-11-10T15:40:52.897Z,13.90
2022-11-10T15:43:19.846Z,13.90
2022-11-10T15:45:58.898Z,13.90
2022-11-10T15:48:26.717Z,13.90
2022-11-10T15:50:55.977Z,13.90
2022-11-10T15:53:31.618Z,13.90
2022-11-10T15:55:58.482Z,13.90
2022-11-10T15:58:27.409Z,13.90
2022-11-10T16:00:54.685Z,13.80
2022-11-10T16:03:24.523Z,13.80
2022-11-10T16:05:51.419Z,13.80
2022-11-10T16:08:21.494Z,13.80
2022-11-10T16:10:51.308Z,13.80
2022-11-10T16:13:23.992Z,13.80
2022-11-10T16:15:51.665Z,13.80
2022-11-10T16:18:22.110Z,13.70
2022-11-10T16:20:50.868Z,13.80
2022-11-10T16:23:18.250Z,13.80
2022-11-10T16:25:47.103Z,13.80
2022-11-10T16:28:19.699Z,13.70
2022-11-10T16:30:46.872Z,13.80
2022-11-10T16:33:18.708Z,13.80
2022-11-10T16:35:49.072Z,13.80
2022-11-10T16:38:20.401Z,13.80
2022-11-10T16:41:11.389Z,13.80
2022-11-10T16:43:38.299Z,13.80
2022-11-10T16:46:13.934Z,13.80
2022-11-10T16:48:45.231Z,13.90
2022-11-10T16:51:14.201Z,13.90
2022-11-10T16:53:41.587Z,13.90
2022-11-10T16:56:18.723Z,13.90
2022-11-10T16:58:45.571Z,13.80
2022-11-10T17:01:28.285Z,13.80
2022-11-10T17:04:01.081Z,13.70
2022-11-10T17:06:29.557Z,13.70
2022-11-10T17:09:00.400Z,13.70
2022-11-10T17:11:27.398Z,13.70
2022-11-10T17:13:54.248Z,13.70
2022-11-10T17:16:23.439Z,13.70
2022-11-10T17:18:50.932Z,13.70
2022-11-10T17:21:18.785Z,13.70
2022-11-10T17:23:45.756Z,13.70
2022-11-10T17:26:15.561Z,13.70
2022-11-10T17:28:42.465Z,13.60
2022-11-10T17:31:09.369Z,13.60
2022-11-10T17:33:36.163Z,13.60
2022-11-10T17:36:05.149Z,13.50
2022-11-10T17:38:33.217Z,13.50
2022-11-10T17:41:00.148Z,13.50
2022-11-10T17:43:27.033Z,13.50
2022-11-10T17:45:53.810Z,13.50
2022-11-10T17:48:21.352Z,13.50
2022-11-10T17:50:48.293Z,13.50
2022-11-10T17:53:22.028Z,13.60
2022-11-10T17:55:49.674Z,13.60
2022-11-10T17:58:17.673Z,13.60
2022-11-10T18:00:45.674Z,13.60
2022-11-10T18:03:17.457Z,13.50
2022-11-10T18:05:44.682Z,13.50
2022-11-10T18:08:12.554Z,13.50
2022-11-10T18:10:51.906Z,13.50
2022-11-10T18:13:18.966Z,13.40
2022-11-10T18:15:47.067Z,13.40
2022-11-10T18:18:15.636Z,13.40
2022-11-10T18:20:43.137Z,13.40
2022-11-10T18:23:12.545Z,13.40
2022-11-10T18:25:41.495Z,13.40
2022-11-10T18:28:09.203Z,13.40
2022-11-10T18:30:37.395Z,13.30
2022-11-10T18:33:05.469Z,13.30
2022-11-10T18:35:34.202Z,13.30
2022-11-10T18:38:01.388Z,13.30
2022-11-10T18:40:28.242Z,13.30
2022-11-10T18:43:06.877Z,13.30
2022-11-10T18:45:35.544Z,13.30
2022-11-10T18:48:03.554Z,13.30
2022-11-10T18:50:30.708Z,13.20
2022-11-10T18:52:57.802Z,13.20
2022-11-10T18:55:24.870Z,13.20
2022-11-10T18:57:52.050Z,13.20
2022-11-10T19:00:19.479Z,13.20
2022-11-10T19:02:46.245Z,13.20
2022-11-10T19:05:13.012Z,13.10
2022-11-10T19:07:39.945Z,13.10
2022-11-10T19:10:06.916Z,13.10
2022-11-10T19:12:33.916Z,13.10
2022-11-10T19:15:00.723Z,13.10
2022-11-10T19:17:27.484Z,13.10
2022-11-10T19:19:56.701Z,13.10
2022-11-10T19:22:24.168Z,13.10
2022-11-10T19:25:07.476Z,13.00
2022-11-10T19:27:35.637Z,13.00
2022-11-10T19:30:02.543Z,13.00
2022-11-10T19:32:29.697Z,13.00
2022-11-10T19:34:56.493Z,13.00
2022-11-10T19:37:23.445Z,13.00
2022-11-10T19:39:50.247Z,13.00
2022-11-10T19:42:17.290Z,13.00
2022-11-10T19:44:44.120Z,13.00
2022-11-10T19:47:10.945Z,12.90
2022-11-10T19:49:38.732Z,12.90
2022-11-10T19:52:05.665Z,12.90
2022-11-10T19:54:32.647Z,12.90
2022-11-10T19:56:59.501Z,12.90
2022-11-10T19:59:26.343Z,12.90
2022-11-10T20:01:53.538Z,12.90
2022-11-10T20:04:20.522Z,12.80
2022-11-10T20:06:47.480Z,12.80
2022-11-10T20:09:14.441Z,12.80
2022-11-10T20:11:41.235Z,12.80
2022-11-10T20:14:08.183Z,12.70
2022-11-10T20:16:35.022Z,12.70
2022-11-10T20:19:01.804Z,12.70
2022-11-10T20:21:28.811Z,12.70
2022-11-10T20:23:56.707Z,12.70
2022-11-10T20:26:24.300Z,12.70
2022-11-10T20:28:51.371Z,12.70
2022-11-10T20:31:24.384Z,12.60
2022-11-10T20:33:52.879Z,12.60
2022-11-10T20:36:26.366Z,12.60
2022-11-10T20:38:54.767Z,12.60
2022-11-10T20:41:24.934Z,12.60
2022-11-10T20:43:52.478Z,12.50
2022-11-10T20:46:53.898Z,12.50
2022-11-10T20:49:08.092Z,12.50
2022-11-10T20:51:35.163Z,12.50
2022-11-10T20:54:02.203Z,12.50
2022-11-10T20:56:30.215Z,12.50
2022-11-10T20:58:57.944Z,12.50
2022-11-10T21:01:25.375Z,12.50
2022-11-10T21:03:53.175Z,12.50
2022-11-10T21:06:20.071Z,12.50
2022-11-10T21:08:46.835Z,12.50
2022-11-10T21:11:33.704Z,12.40
2022-11-10T21:14:01.519Z,12.40
2022-11-10T21:16:28.453Z,12.40
2022-11-10T21:18:56.576Z,12.40
2022-11-10T21:21:27.929Z,12.40
2022-11-10T21:23:57.322Z,12.30
2022-11-10T21:26:24.588Z,12.30
2022-11-10T21:28:51.461Z,12.30
2022-11-10T21:31:18.737Z,12.30
2022-11-10T21:33:45.770Z,12.30
2022-11-10T21:36:12.573Z,12.30
2022-11-10T21:38:39.483Z,12.30
2022-11-10T21:41:06.376Z,12.20
2022-11-10T21:43:33.149Z,12.20
2022-11-10T21:46:04.046Z,12.20
2022-11-10T21:48:30.869Z,12.20
2022-11-10T21:51:05.732Z,12.20
2022-11-10T21:53:33.633Z,12.10
2022-11-10T21:56:06.273Z,12.10
2022-11-10T21:58:33.805Z,12.10
2022-11-10T22:01:06.023Z,12.10
2022-11-10T22:03:34.049Z,12.10
2022-11-10T22:06:19.484Z,12.10
2022-11-10T22:08:47.436Z,12.00
2022-11-10T22:11:39.873Z,12.00
2022-11-10T22:14:32.008Z,11.90
2022-11-10T22:17:18.710Z,11.90
2022-11-10T22:19:45.578Z,11.90
2022-11-10T22:22:14.371Z,11.90
2022-11-10T22:24:41.410Z,11.90
2022-11-10T22:27:08.299Z,11.90
2022-11-10T22:29:35.223Z,11.90
2022-11-10T22:32:02.923Z,11.90
2022-11-10T22:34:30.314Z,11.90
2022-11-10T22:36:59.493Z,11.80
2022-11-10T22:39:46.591Z,11.80
2022-11-10T22:42:32.134Z,11.80
2022-11-10T22:44:59.237Z,11.80
2022-11-10T22:47:26.014Z,11.80
2022-11-10T22:49:52.910Z,11.80
2022-11-10T22:52:19.671Z,11.80
2022-11-10T22:54:46.470Z,11.80
2022-11-10T22:57:13.265Z,11.80
2022-11-10T22:59:40.022Z,11.80
2022-11-10T23:02:06.843Z,11.80
2022-11-10T23:04:33.632Z,11.70
2022-11-10T23:07:00.497Z,11.70
2022-11-10T23:09:27.311Z,11.70
2022-11-10T23:11:54.081Z,11.70
2022-11-10T23:14:20.907Z,11.70
2022-11-10T23:16:47.672Z,11.70
2022-11-10T23:19:14.551Z,11.70
2022-11-10T23:21:41.387Z,11.70
2022-11-10T23:24:08.498Z,11.70
2022-11-10T23:26:35.273Z,11.70
2022-11-10T23:29:02.032Z,11.70
2022-11-10T23:31:29.010Z,11.70
2022-11-10T23:33:57.953Z,11.70
2022-11-10T23:36:26.259Z,11.70
2022-11-10T23:38:54.650Z,11.70
2022-11-10T23:41:31.784Z,11.70
2022-11-10T23:43:58.578Z,11.70
2022-11-10T23:46:25.454Z,11.60
2022-11-10T23:48:52.211Z,11.70
2022-11-10T23:51:19.020Z,11.60
2022-11-10T23:53:45.838Z,11.70
2022-11-10T23:56:13.688Z,11.70
2022-11-10T23:58:40.955Z,11.70
